sensor_id;sensor_type;location;lat;lon;timestamp;P1;durP1;ratioP1;P2;durP2;ratioP2
27533;SDS011;14973;51.460;7.008;2022-10-16T00:01:33;8.13;;;3.75;;
27533;SDS011;14973;51.460;7.008;2022-10-16T00:04:00;6.15;;;3.30;;
27533;SDS011;14973;51.460;7.008;2022-10-16T00:06:26;11.63;;;3.47;;
27533;SDS011;14973;51.460;7.008;2022-10-16T00:08:53;12.63;;;3.65;;
27533;SDS011;14973;51.460;7.008;2022-10-16T00:11:40;9.07;;;3.90;;
27533;SDS011;14973;51.460;7.008;2022-10-16T00:14:06;8.98;;;3.85;;
27533;SDS011;14973;51.460;7.008;2022-10-16T00:16:35;10.13;;;3.40;;
27533;SDS011;14973;51.460;7.008;2022-10-16T00:19:01;7.03;;;3.40;;
27533;SDS011;14973;51.460;7.008;2022-10-16T00:21:29;9.25;;;3.38;;
27533;SDS011;14973;51.460;7.008;2022-10-16T00:23:56;8.32;;;3.40;;
27533;SDS011;14973;51.460;7.008;2022-10-16T00:26:24;10.90;;;3.28;;
27533;SDS011;14973;51.460;7.008;2022-10-16T00:28:51;15.90;;;3.30;;
27533;SDS011;14973;51.460;7.008;2022-10-16T00:31:17;5.03;;;2.83;;
27533;SDS011;14973;51.460;7.008;2022-10-16T00:33:45;9.65;;;3.38;;
27533;SDS011;14973;51.460;7.008;2022-10-16T00:36:12;9.82;;;2.78;;
27533;SDS011;14973;51.460;7.008;2022-10-16T00:38:39;7.70;;;2.50;;
27533;SDS011;14973;51.460;7.008;2022-10-16T00:41:05;8.60;;;2.65;;
27533;SDS011;14973;51.460;7.008;2022-10-16T00:43:34;7.65;;;2.80;;
27533;SDS011;14973;51.460;7.008;2022-10-16T00:46:03;7.63;;;2.75;;
27533;SDS011;14973;51.460;7.008;2022-10-16T00:48:35;10.55;;;3.40;;
27533;SDS011;14973;51.460;7.008;2022-10-16T00:51:00;11.82;;;2.83;;
27533;SDS011;14973;51.460;7.008;2022-10-16T00:53:26;8.02;;;3.03;;
27533;SDS011;14973;51.460;7.008;2022-10-16T00:55:52;7.53;;;2.50;;
27533;SDS011;14973;51.460;7.008;2022-10-16T00:58:18;7.18;;;2.47;;
27533;SDS011;14973;51.460;7.008;2022-10-16T01:00:45;10.68;;;2.53;;
27533;SDS011;14973;51.460;7.008;2022-10-16T01:03:24;5.05;;;2.30;;
27533;SDS011;14973;51.460;7.008;2022-10-16T01:08:44;6.90;;;2.33;;
27533;SDS011;14973;51.460;7.008;2022-10-16T01:11:24;9.57;;;2.15;;
27533;SDS011;14973;51.460;7.008;2022-10-16T01:13:58;4.53;;;2.13;;
27533;SDS011;14973;51.460;7.008;2022-10-16T01:16:34;9.93;;;2.80;;
27533;SDS011;14973;51.460;7.008;2022-10-16T01:21:40;5.80;;;2.40;;
27533;SDS011;14973;51.460;7.008;2022-10-16T01:24:27;7.32;;;2.30;;
27533;SDS011;14973;51.460;7.008;2022-10-16T01:32:17;6.70;;;2.17;;
27533;SDS011;14973;51.460;7.008;2022-10-16T01:34:59;17.45;;;3.00;;
27533;SDS011;14973;51.460;7.008;2022-10-16T01:37:36;7.82;;;2.03;;
27533;SDS011;14973;51.460;7.008;2022-10-16T01:40:07;4.10;;;2.10;;
27533;SDS011;14973;51.460;7.008;2022-10-16T01:42:43;7.00;;;2.20;;
27533;SDS011;14973;51.460;7.008;2022-10-16T01:45:17;9.13;;;2.53;;
27533;SDS011;14973;51.460;7.008;2022-10-16T01:47:45;8.40;;;2.05;;
27533;SDS011;14973;51.460;7.008;2022-10-16T01:50:13;10.48;;;2.00;;
27533;SDS011;14973;51.460;7.008;2022-10-16T01:52:42;8.52;;;2.28;;
27533;SDS011;14973;51.460;7.008;2022-10-16T01:55:12;4.35;;;2.25;;
27533;SDS011;14973;51.460;7.008;2022-10-16T01:57:43;3.67;;;2.10;;
27533;SDS011;14973;51.460;7.008;2022-10-16T02:00:12;5.25;;;2.15;;
27533;SDS011;14973;51.460;7.008;2022-10-16T02:02:40;5.82;;;2.20;;
27533;SDS011;14973;51.460;7.008;2022-10-16T02:05:18;5.55;;;2.38;;
27533;SDS011;14973;51.460;7.008;2022-10-16T02:07:51;6.90;;;2.10;;
27533;SDS011;14973;51.460;7.008;2022-10-16T02:10:17;7.20;;;2.70;;
27533;SDS011;14973;51.460;7.008;2022-10-16T02:12:49;6.43;;;2.25;;
27533;SDS011;14973;51.460;7.008;2022-10-16T02:15:20;3.88;;;1.80;;
27533;SDS011;14973;51.460;7.008;2022-10-16T02:17:45;5.00;;;2.38;;
27533;SDS011;14973;51.460;7.008;2022-10-16T02:20:11;4.63;;;2.30;;
27533;SDS011;14973;51.460;7.008;2022-10-16T02:22:43;9.85;;;2.80;;
27533;SDS011;14973;51.460;7.008;2022-10-16T02:25:17;8.27;;;2.67;;
27533;SDS011;14973;51.460;7.008;2022-10-16T02:27:57;6.97;;;2.80;;
27533;SDS011;14973;51.460;7.008;2022-10-16T02:30:36;9.15;;;2.70;;
27533;SDS011;14973;51.460;7.008;2022-10-16T02:33:07;9.85;;;2.30;;
27533;SDS011;14973;51.460;7.008;2022-10-16T02:35:35;8.07;;;2.47;;
27533;SDS011;14973;51.460;7.008;2022-10-16T02:38:02;8.35;;;2.50;;
27533;SDS011;14973;51.460;7.008;2022-10-16T02:40:29;2.92;;;2.00;;
27533;SDS011;14973;51.460;7.008;2022-10-16T02:42:55;7.43;;;2.55;;
27533;SDS011;14973;51.460;7.008;2022-10-16T02:45:21;6.80;;;2.40;;
27533;SDS011;14973;51.460;7.008;2022-10-16T02:47:48;6.63;;;2.40;;
27533;SDS011;14973;51.460;7.008;2022-10-16T02:50:13;5.57;;;2.40;;
27533;SDS011;14973;51.460;7.008;2022-10-16T02:52:39;9.85;;;3.00;;
27533;SDS011;14973;51.460;7.008;2022-10-16T02:55:05;8.38;;;3.00;;
27533;SDS011;14973;51.460;7.008;2022-10-16T02:57:31;4.32;;;2.45;;
27533;SDS011;14973;51.460;7.008;2022-10-16T02:59:56;4.82;;;2.38;;
27533;SDS011;14973;51.460;7.008;2022-10-16T03:02:22;4.43;;;2.33;;
27533;SDS011;14973;51.460;7.008;2022-10-16T03:04:48;6.80;;;2.00;;
27533;SDS011;14973;51.460;7.008;2022-10-16T03:07:14;3.83;;;1.88;;
27533;SDS011;14973;51.460;7.008;2022-10-16T03:09:39;3.78;;;1.88;;
27533;SDS011;14973;51.460;7.008;2022-10-16T03:12:05;5.22;;;2.00;;
27533;SDS011;14973;51.460;7.008;2022-10-16T03:14:31;2.15;;;1.65;;
27533;SDS011;14973;51.460;7.008;2022-10-16T03:16:57;3.72;;;1.95;;
27533;SDS011;14973;51.460;7.008;2022-10-16T03:19:23;4.63;;;1.60;;
27533;SDS011;14973;51.460;7.008;2022-10-16T03:21:48;6.82;;;1.65;;
27533;SDS011;14973;51.460;7.008;2022-10-16T03:24:14;9.55;;;1.92;;
27533;SDS011;14973;51.460;7.008;2022-10-16T03:26:40;2.92;;;1.80;;
27533;SDS011;14973;51.460;7.008;2022-10-16T03:29:05;6.75;;;1.80;;
27533;SDS011;14973;51.460;7.008;2022-10-16T03:31:31;3.10;;;1.52;;
27533;SDS011;14973;51.460;7.008;2022-10-16T03:33:57;4.85;;;1.75;;
27533;SDS011;14973;51.460;7.008;2022-10-16T03:36:23;4.32;;;1.80;;
27533;SDS011;14973;51.460;7.008;2022-10-16T03:38:48;2.95;;;1.70;;
27533;SDS011;14973;51.460;7.008;2022-10-16T03:41:14;5.18;;;2.15;;
27533;SDS011;14973;51.460;7.008;2022-10-16T03:43:39;4.38;;;2.08;;
27533;SDS011;14973;51.460;7.008;2022-10-16T03:46:05;3.28;;;1.70;;
27533;SDS011;14973;51.460;7.008;2022-10-16T03:48:31;4.65;;;1.88;;
27533;SDS011;14973;51.460;7.008;2022-10-16T03:50:57;4.10;;;2.10;;
27533;SDS011;14973;51.460;7.008;2022-10-16T03:53:23;5.15;;;1.75;;
27533;SDS011;14973;51.460;7.008;2022-10-16T03:55:49;3.95;;;1.88;;
27533;SDS011;14973;51.460;7.008;2022-10-16T03:58:15;6.88;;;1.90;;
27533;SDS011;14973;51.460;7.008;2022-10-16T04:00:41;3.15;;;1.73;;
27533;SDS011;14973;51.460;7.008;2022-10-16T04:03:07;4.97;;;2.03;;
27533;SDS011;14973;51.460;7.008;2022-10-16T04:05:33;3.03;;;2.00;;
27533;SDS011;14973;51.460;7.008;2022-10-16T04:07:58;7.50;;;2.00;;
27533;SDS011;14973;51.460;7.008;2022-10-16T04:10:24;2.70;;;1.77;;
27533;SDS011;14973;51.460;7.008;2022-10-16T04:12:50;2.83;;;1.90;;
27533;SDS011;14973;51.460;7.008;2022-10-16T04:15:15;4.03;;;1.90;;
27533;SDS011;14973;51.460;7.008;2022-10-16T04:17:41;4.65;;;2.30;;
27533;SDS011;14973;51.460;7.008;2022-10-16T04:20:07;3.53;;;1.77;;
27533;SDS011;14973;51.460;7.008;2022-10-16T04:22:33;3.28;;;2.42;;
27533;SDS011;14973;51.460;7.008;2022-10-16T04:24:58;5.43;;;2.38;;
27533;SDS011;14973;51.460;7.008;2022-10-16T04:27:24;5.53;;;2.25;;
27533;SDS011;14973;51.460;7.008;2022-10-16T04:29:49;7.70;;;2.95;;
27533;SDS011;14973;51.460;7.008;2022-10-16T04:32:15;6.32;;;2.28;;
27533;SDS011;14973;51.460;7.008;2022-10-16T04:34:41;8.25;;;2.40;;
27533;SDS011;14973;51.460;7.008;2022-10-16T04:37:06;3.25;;;1.83;;
27533;SDS011;14973;51.460;7.008;2022-10-16T04:39:32;6.10;;;2.08;;
27533;SDS011;14973;51.460;7.008;2022-10-16T04:41:57;9.93;;;2.22;;
27533;SDS011;14973;51.460;7.008;2022-10-16T04:44:23;6.05;;;2.17;;
27533;SDS011;14973;51.460;7.008;2022-10-16T04:46:51;5.00;;;2.17;;
27533;SDS011;14973;51.460;7.008;2022-10-16T04:49:17;5.47;;;2.00;;
27533;SDS011;14973;51.460;7.008;2022-10-16T04:51:43;4.10;;;1.80;;
27533;SDS011;14973;51.460;7.008;2022-10-16T04:54:08;7.75;;;2.30;;
27533;SDS011;14973;51.460;7.008;2022-10-16T04:56:35;10.07;;;2.30;;
27533;SDS011;14973;51.460;7.008;2022-10-16T04:59:07;5.32;;;2.22;;
27533;SDS011;14973;51.460;7.008;2022-10-16T05:01:34;5.65;;;2.28;;
27533;SDS011;14973;51.460;7.008;2022-10-16T05:03:59;8.70;;;2.42;;
27533;SDS011;14973;51.460;7.008;2022-10-16T05:06:25;4.70;;;1.88;;
27533;SDS011;14973;51.460;7.008;2022-10-16T05:08:51;6.22;;;2.17;;
27533;SDS011;14973;51.460;7.008;2022-10-16T05:11:16;3.40;;;1.98;;
27533;SDS011;14973;51.460;7.008;2022-10-16T05:13:42;6.13;;;2.22;;
27533;SDS011;14973;51.460;7.008;2022-10-16T05:16:07;3.97;;;2.30;;
27533;SDS011;14973;51.460;7.008;2022-10-16T05:18:33;3.45;;;2.00;;
27533;SDS011;14973;51.460;7.008;2022-10-16T05:20:59;7.40;;;2.28;;
27533;SDS011;14973;51.460;7.008;2022-10-16T05:23:24;8.38;;;2.20;;
27533;SDS011;14973;51.460;7.008;2022-10-16T05:25:56;2.97;;;2.13;;
27533;SDS011;14973;51.460;7.008;2022-10-16T05:28:26;8.25;;;2.10;;
27533;SDS011;14973;51.460;7.008;2022-10-16T05:30:53;4.18;;;1.85;;
27533;SDS011;14973;51.460;7.008;2022-10-16T05:33:20;4.28;;;2.08;;
27533;SDS011;14973;51.460;7.008;2022-10-16T05:35:46;6.32;;;2.30;;
27533;SDS011;14973;51.460;7.008;2022-10-16T05:38:11;6.57;;;2.40;;
27533;SDS011;14973;51.460;7.008;2022-10-16T05:40:37;4.00;;;2.00;;
27533;SDS011;14973;51.460;7.008;2022-10-16T05:43:03;10.32;;;2.10;;
27533;SDS011;14973;51.460;7.008;2022-10-16T05:45:28;5.15;;;2.67;;
27533;SDS011;14973;51.460;7.008;2022-10-16T05:47:54;8.60;;;2.17;;
27533;SDS011;14973;51.460;7.008;2022-10-16T05:50:20;4.10;;;2.10;;
27533;SDS011;14973;51.460;7.008;2022-10-16T05:52:45;4.78;;;1.95;;
27533;SDS011;14973;51.460;7.008;2022-10-16T05:55:11;5.45;;;2.42;;
27533;SDS011;14973;51.460;7.008;2022-10-16T05:57:36;5.50;;;2.35;;
27533;SDS011;14973;51.460;7.008;2022-10-16T06:00:03;5.07;;;2.25;;
27533;SDS011;14973;51.460;7.008;2022-10-16T06:02:29;4.03;;;1.80;;
27533;SDS011;14973;51.460;7.008;2022-10-16T06:04:55;6.43;;;2.20;;
27533;SDS011;14973;51.460;7.008;2022-10-16T06:07:20;6.68;;;2.13;;
27533;SDS011;14973;51.460;7.008;2022-10-16T06:09:50;4.15;;;1.92;;
27533;SDS011;14973;51.460;7.008;2022-10-16T06:12:16;4.28;;;2.40;;
27533;SDS011;14973;51.460;7.008;2022-10-16T06:14:42;3.78;;;2.17;;
27533;SDS011;14973;51.460;7.008;2022-10-16T06:17:07;4.68;;;1.83;;
27533;SDS011;14973;51.460;7.008;2022-10-16T06:19:33;5.68;;;2.33;;
27533;SDS011;14973;51.460;7.008;2022-10-16T06:21:59;11.63;;;5.70;;
27533;SDS011;14973;51.460;7.008;2022-10-16T06:24:25;4.82;;;2.17;;
27533;SDS011;14973;51.460;7.008;2022-10-16T06:26:51;6.82;;;2.50;;
27533;SDS011;14973;51.460;7.008;2022-10-16T06:29:16;5.18;;;2.40;;
27533;SDS011;14973;51.460;7.008;2022-10-16T06:31:42;6.18;;;2.50;;
27533;SDS011;14973;51.460;7.008;2022-10-16T06:34:08;4.10;;;1.92;;
27533;SDS011;14973;51.460;7.008;2022-10-16T06:36:35;8.02;;;3.70;;
27533;SDS011;14973;51.460;7.008;2022-10-16T06:39:02;8.93;;;5.07;;
27533;SDS011;14973;51.460;7.008;2022-10-16T06:41:28;8.38;;;2.30;;
27533;SDS011;14973;51.460;7.008;2022-10-16T06:43:54;4.00;;;2.28;;
27533;SDS011;14973;51.460;7.008;2022-10-16T06:46:20;9.68;;;2.10;;
27533;SDS011;14973;51.460;7.008;2022-10-16T06:48:48;4.40;;;1.98;;
27533;SDS011;14973;51.460;7.008;2022-10-16T06:51:14;6.03;;;2.00;;
27533;SDS011;14973;51.460;7.008;2022-10-16T06:53:42;8.95;;;2.55;;
27533;SDS011;14973;51.460;7.008;2022-10-16T06:56:17;4.07;;;2.10;;
27533;SDS011;14973;51.460;7.008;2022-10-16T06:58:46;4.40;;;1.80;;
27533;SDS011;14973;51.460;7.008;2022-10-16T07:01:13;3.25;;;1.95;;
27533;SDS011;14973;51.460;7.008;2022-10-16T07:03:40;2.85;;;1.73;;
27533;SDS011;14973;51.460;7.008;2022-10-16T07:06:08;3.65;;;2.33;;
27533;SDS011;14973;51.460;7.008;2022-10-16T07:08:36;6.78;;;2.05;;
27533;SDS011;14973;51.460;7.008;2022-10-16T07:11:04;4.68;;;1.80;;
27533;SDS011;14973;51.460;7.008;2022-10-16T07:13:35;4.45;;;1.98;;
27533;SDS011;14973;51.460;7.008;2022-10-16T07:16:05;7.65;;;2.15;;
27533;SDS011;14973;51.460;7.008;2022-10-16T07:18:32;5.15;;;2.00;;
27533;SDS011;14973;51.460;7.008;2022-10-16T07:23:49;2.53;;;1.70;;
27533;SDS011;14973;51.460;7.008;2022-10-16T07:26:19;5.30;;;1.95;;
27533;SDS011;14973;51.460;7.008;2022-10-16T07:28:45;4.53;;;1.98;;
27533;SDS011;14973;51.460;7.008;2022-10-16T07:31:12;8.77;;;2.28;;
27533;SDS011;14973;51.460;7.008;2022-10-16T07:33:39;3.55;;;2.00;;
27533;SDS011;14973;51.460;7.008;2022-10-16T07:36:07;7.47;;;3.40;;
27533;SDS011;14973;51.460;7.008;2022-10-16T07:38:34;9.95;;;2.20;;
27533;SDS011;14973;51.460;7.008;2022-10-16T07:41:03;4.85;;;2.10;;
27533;SDS011;14973;51.460;7.008;2022-10-16T07:43:30;9.75;;;2.42;;
27533;SDS011;14973;51.460;7.008;2022-10-16T07:45:56;6.65;;;3.10;;
27533;SDS011;14973;51.460;7.008;2022-10-16T07:48:23;2.35;;;1.75;;
27533;SDS011;14973;51.460;7.008;2022-10-16T07:50:51;6.50;;;2.13;;
27533;SDS011;14973;51.460;7.008;2022-10-16T07:53:17;9.55;;;2.83;;
27533;SDS011;14973;51.460;7.008;2022-10-16T07:55:42;8.98;;;2.40;;
27533;SDS011;14973;51.460;7.008;2022-10-16T07:58:08;6.85;;;3.42;;
27533;SDS011;14973;51.460;7.008;2022-10-16T08:00:35;4.43;;;2.00;;
27533;SDS011;14973;51.460;7.008;2022-10-16T08:03:02;3.03;;;1.80;;
27533;SDS011;14973;51.460;7.008;2022-10-16T08:05:28;7.60;;;1.73;;
27533;SDS011;14973;51.460;7.008;2022-10-16T08:07:56;6.90;;;1.77;;
27533;SDS011;14973;51.460;7.008;2022-10-16T08:10:22;4.43;;;1.83;;
27533;SDS011;14973;51.460;7.008;2022-10-16T08:12:50;7.03;;;1.80;;
27533;SDS011;14973;51.460;7.008;2022-10-16T08:15:16;4.70;;;1.30;;
27533;SDS011;14973;51.460;7.008;2022-10-16T08:17:42;2.80;;;1.05;;
27533;SDS011;14973;51.460;7.008;2022-10-16T08:20:08;5.55;;;1.55;;
27533;SDS011;14973;51.460;7.008;2022-10-16T08:22:34;5.60;;;1.42;;
27533;SDS011;14973;51.460;7.008;2022-10-16T08:25:00;6.28;;;1.20;;
27533;SDS011;14973;51.460;7.008;2022-10-16T08:27:30;3.83;;;1.00;;
27533;SDS011;14973;51.460;7.008;2022-10-16T08:29:59;4.18;;;1.08;;
27533;SDS011;14973;51.460;7.008;2022-10-16T08:32:24;5.50;;;1.17;;
27533;SDS011;14973;51.460;7.008;2022-10-16T08:34:50;6.10;;;1.27;;
27533;SDS011;14973;51.460;7.008;2022-10-16T08:37:15;2.95;;;1.20;;
27533;SDS011;14973;51.460;7.008;2022-10-16T08:39:41;5.95;;;1.05;;
27533;SDS011;14973;51.460;7.008;2022-10-16T08:49:59;7.05;;;1.23;;
27533;SDS011;14973;51.460;7.008;2022-10-16T08:52:34;4.40;;;1.00;;
27533;SDS011;14973;51.460;7.008;2022-10-16T08:55:03;5.20;;;0.98;;
27533;SDS011;14973;51.460;7.008;2022-10-16T08:57:29;2.30;;;0.90;;
27533;SDS011;14973;51.460;7.008;2022-10-16T08:59:58;3.55;;;1.13;;
27533;SDS011;14973;51.460;7.008;2022-10-16T09:02:31;4.35;;;1.08;;
27533;SDS011;14973;51.460;7.008;2022-10-16T09:10:35;6.70;;;1.00;;
27533;SDS011;14973;51.460;7.008;2022-10-16T09:18:47;6.95;;;0.82;;
27533;SDS011;14973;51.460;7.008;2022-10-16T09:21:41;7.00;;;2.72;;
27533;SDS011;14973;51.460;7.008;2022-10-16T09:24:14;8.32;;;3.88;;
27533;SDS011;14973;51.460;7.008;2022-10-16T09:26:42;8.57;;;1.20;;
27533;SDS011;14973;51.460;7.008;2022-10-16T09:29:14;5.95;;;1.02;;
27533;SDS011;14973;51.460;7.008;2022-10-16T09:31:42;4.57;;;1.10;;
27533;SDS011;14973;51.460;7.008;2022-10-16T09:34:13;4.78;;;1.17;;
27533;SDS011;14973;51.460;7.008;2022-10-16T09:37:04;4.53;;;1.25;;
27533;SDS011;14973;51.460;7.008;2022-10-16T09:42:34;5.68;;;1.77;;
27533;SDS011;14973;51.460;7.008;2022-10-16T09:45:02;3.55;;;1.10;;
27533;SDS011;14973;51.460;7.008;2022-10-16T09:47:29;6.65;;;1.40;;
27533;SDS011;14973;51.460;7.008;2022-10-16T09:50:00;2.72;;;1.38;;
27533;SDS011;14973;51.460;7.008;2022-10-16T09:52:31;7.10;;;1.30;;
27533;SDS011;14973;51.460;7.008;2022-10-16T09:57:27;5.68;;;1.75;;
27533;SDS011;14973;51.460;7.008;2022-10-16T09:59:55;2.50;;;0.95;;
27533;SDS011;14973;51.460;7.008;2022-10-16T10:02:33;5.50;;;1.10;;
27533;SDS011;14973;51.460;7.008;2022-10-16T10:05:00;4.00;;;1.00;;
27533;SDS011;14973;51.460;7.008;2022-10-16T10:07:28;4.85;;;1.10;;
27533;SDS011;14973;51.460;7.008;2022-10-16T10:10:00;4.63;;;1.23;;
27533;SDS011;14973;51.460;7.008;2022-10-16T10:12:29;7.40;;;1.40;;
27533;SDS011;14973;51.460;7.008;2022-10-16T10:15:06;6.20;;;1.17;;
27533;SDS011;14973;51.460;7.008;2022-10-16T10:17:44;5.45;;;1.25;;
27533;SDS011;14973;51.460;7.008;2022-10-16T10:22:46;7.82;;;2.20;;
27533;SDS011;14973;51.460;7.008;2022-10-16T10:25:14;9.15;;;1.83;;
27533;SDS011;14973;51.460;7.008;2022-10-16T10:30:44;11.27;;;1.70;;
27533;SDS011;14973;51.460;7.008;2022-10-16T10:36:38;6.07;;;1.42;;
27533;SDS011;14973;51.460;7.008;2022-10-16T10:39:11;6.78;;;1.55;;
27533;SDS011;14973;51.460;7.008;2022-10-16T10:44:25;5.15;;;1.33;;
27533;SDS011;14973;51.460;7.008;2022-10-16T10:52:41;8.00;;;1.33;;
27533;SDS011;14973;51.460;7.008;2022-10-16T11:00:27;3.22;;;1.27;;
27533;SDS011;14973;51.460;7.008;2022-10-16T11:06:07;3.28;;;1.00;;
27533;SDS011;14973;51.460;7.008;2022-10-16T11:11:30;3.78;;;1.35;;
27533;SDS011;14973;51.460;7.008;2022-10-16T11:14:02;4.22;;;1.20;;
27533;SDS011;14973;51.460;7.008;2022-10-16T11:16:34;7.00;;;1.45;;
27533;SDS011;14973;51.460;7.008;2022-10-16T11:19:09;5.07;;;1.05;;
27533;SDS011;14973;51.460;7.008;2022-10-16T11:21:48;3.63;;;1.10;;
27533;SDS011;14973;51.460;7.008;2022-10-16T11:24:22;6.53;;;1.50;;
27533;SDS011;14973;51.460;7.008;2022-10-16T11:26:56;4.97;;;1.10;;
27533;SDS011;14973;51.460;7.008;2022-10-16T11:29:30;2.55;;;1.00;;
27533;SDS011;14973;51.460;7.008;2022-10-16T11:31:57;5.45;;;1.60;;
27533;SDS011;14973;51.460;7.008;2022-10-16T11:37:01;5.18;;;1.35;;
27533;SDS011;14973;51.460;7.008;2022-10-16T11:39:39;5.82;;;1.02;;
27533;SDS011;14973;51.460;7.008;2022-10-16T11:47:33;5.70;;;1.10;;
27533;SDS011;14973;51.460;7.008;2022-10-16T11:50:23;4.78;;;1.33;;
27533;SDS011;14973;51.460;7.008;2022-10-16T11:55:27;2.92;;;0.70;;
27533;SDS011;14973;51.460;7.008;2022-10-16T12:03:35;4.13;;;1.10;;
27533;SDS011;14973;51.460;7.008;2022-10-16T12:06:25;4.38;;;1.10;;
27533;SDS011;14973;51.460;7.008;2022-10-16T12:08:55;5.65;;;1.20;;
27533;SDS011;14973;51.460;7.008;2022-10-16T12:14:04;4.25;;;1.30;;
27533;SDS011;14973;51.460;7.008;2022-10-16T12:16:30;4.28;;;1.17;;
27533;SDS011;14973;51.460;7.008;2022-10-16T12:19:29;4.07;;;1.05;;
27533;SDS011;14973;51.460;7.008;2022-10-16T12:21:49;3.88;;;1.17;;
27533;SDS011;14973;51.460;7.008;2022-10-16T12:24:36;5.63;;;1.05;;
27533;SDS011;14973;51.460;7.008;2022-10-16T12:29:56;4.88;;;1.25;;
27533;SDS011;14973;51.460;7.008;2022-10-16T12:32:33;6.40;;;1.65;;
27533;SDS011;14973;51.460;7.008;2022-10-16T12:35:04;8.85;;;1.50;;
27533;SDS011;14973;51.460;7.008;2022-10-16T12:37:33;7.95;;;1.63;;
27533;SDS011;14973;51.460;7.008;2022-10-16T12:40:11;6.50;;;1.13;;
27533;SDS011;14973;51.460;7.008;2022-10-16T12:42:40;6.10;;;1.20;;
27533;SDS011;14973;51.460;7.008;2022-10-16T12:47:50;7.30;;;1.15;;
27533;SDS011;14973;51.460;7.008;2022-10-16T12:50:23;4.30;;;1.20;;
27533;SDS011;14973;51.460;7.008;2022-10-16T12:52:51;9.65;;;1.00;;
27533;SDS011;14973;51.460;7.008;2022-10-16T12:55:18;3.85;;;1.17;;
27533;SDS011;14973;51.460;7.008;2022-10-16T13:08:35;3.78;;;1.15;;
27533;SDS011;14973;51.460;7.008;2022-10-16T13:11:24;5.30;;;1.00;;
27533;SDS011;14973;51.460;7.008;2022-10-16T13:14:33;6.55;;;1.30;;
27533;SDS011;14973;51.460;7.008;2022-10-16T13:22:39;6.10;;;1.80;;
27533;SDS011;14973;51.460;7.008;2022-10-16T13:28:04;3.03;;;0.90;;
27533;SDS011;14973;51.460;7.008;2022-10-16T13:30:51;4.18;;;1.02;;
27533;SDS011;14973;51.460;7.008;2022-10-16T13:36:17;5.50;;;1.30;;
27533;SDS011;14973;51.460;7.008;2022-10-16T13:38:49;4.50;;;1.00;;
27533;SDS011;14973;51.460;7.008;2022-10-16T13:41:43;4.65;;;0.90;;
27533;SDS011;14973;51.460;7.008;2022-10-16T13:44:16;5.30;;;1.08;;
27533;SDS011;14973;51.460;7.008;2022-10-16T13:46:44;6.30;;;0.85;;
27533;SDS011;14973;51.460;7.008;2022-10-16T13:49:16;3.08;;;0.70;;
27533;SDS011;14973;51.460;7.008;2022-10-16T13:51:53;4.13;;;0.80;;
27533;SDS011;14973;51.460;7.008;2022-10-16T13:54:20;4.25;;;1.02;;
27533;SDS011;14973;51.460;7.008;2022-10-16T13:56:46;7.43;;;1.00;;
27533;SDS011;14973;51.460;7.008;2022-10-16T14:04:52;4.65;;;1.23;;
27533;SDS011;14973;51.460;7.008;2022-10-16T14:07:21;5.28;;;0.90;;
27533;SDS011;14973;51.460;7.008;2022-10-16T14:09:50;6.55;;;1.38;;
27533;SDS011;14973;51.460;7.008;2022-10-16T14:12:17;4.10;;;0.95;;
27533;SDS011;14973;51.460;7.008;2022-10-16T14:14:44;6.55;;;1.10;;
27533;SDS011;14973;51.460;7.008;2022-10-16T14:17:30;3.30;;;1.00;;
27533;SDS011;14973;51.460;7.008;2022-10-16T14:19:59;3.67;;;0.98;;
27533;SDS011;14973;51.460;7.008;2022-10-16T14:27:46;3.45;;;1.05;;
27533;SDS011;14973;51.460;7.008;2022-10-16T14:30:24;4.80;;;0.90;;
27533;SDS011;14973;51.460;7.008;2022-10-16T14:33:06;2.83;;;0.88;;
27533;SDS011;14973;51.460;7.008;2022-10-16T14:35:46;4.40;;;1.20;;
27533;SDS011;14973;51.460;7.008;2022-10-16T14:38:21;4.32;;;1.00;;
27533;SDS011;14973;51.460;7.008;2022-10-16T14:40:47;6.22;;;1.15;;
27533;SDS011;14973;51.460;7.008;2022-10-16T14:43:14;4.15;;;1.15;;
27533;SDS011;14973;51.460;7.008;2022-10-16T14:45:54;6.70;;;1.13;;
27533;SDS011;14973;51.460;7.008;2022-10-16T14:48:21;5.97;;;1.05;;
27533;SDS011;14973;51.460;7.008;2022-10-16T14:50:48;2.60;;;0.90;;
27533;SDS011;14973;51.460;7.008;2022-10-16T14:53:13;3.75;;;1.15;;
27533;SDS011;14973;51.460;7.008;2022-10-16T14:55:39;18.60;;;10.07;;
27533;SDS011;14973;51.460;7.008;2022-10-16T14:58:09;7.68;;;2.58;;
27533;SDS011;14973;51.460;7.008;2022-10-16T15:00:43;5.05;;;1.70;;
27533;SDS011;14973;51.460;7.008;2022-10-16T15:03:08;6.10;;;1.10;;
27533;SDS011;14973;51.460;7.008;2022-10-16T15:05:34;5.28;;;1.00;;
27533;SDS011;14973;51.460;7.008;2022-10-16T15:08:00;3.78;;;1.27;;
27533;SDS011;14973;51.460;7.008;2022-10-16T15:10:26;4.40;;;1.02;;
27533;SDS011;14973;51.460;7.008;2022-10-16T15:12:53;4.20;;;1.05;;
27533;SDS011;14973;51.460;7.008;2022-10-16T15:17:48;4.15;;;1.20;;
27533;SDS011;14973;51.460;7.008;2022-10-16T15:20:17;5.55;;;1.30;;
27533;SDS011;14973;51.460;7.008;2022-10-16T15:22:43;2.45;;;1.10;;
27533;SDS011;14973;51.460;7.008;2022-10-16T15:25:13;3.58;;;0.82;;
27533;SDS011;14973;51.460;7.008;2022-10-16T15:28:09;2.53;;;1.10;;
27533;SDS011;14973;51.460;7.008;2022-10-16T15:30:35;5.95;;;1.20;;
27533;SDS011;14973;51.460;7.008;2022-10-16T15:33:02;8.95;;;1.38;;
27533;SDS011;14973;51.460;7.008;2022-10-16T15:35:29;2.55;;;0.90;;
27533;SDS011;14973;51.460;7.008;2022-10-16T15:37:54;10.65;;;1.23;;
27533;SDS011;14973;51.460;7.008;2022-10-16T15:40:20;3.92;;;1.05;;
27533;SDS011;14973;51.460;7.008;2022-10-16T15:42:47;4.78;;;1.15;;
27533;SDS011;14973;51.460;7.008;2022-10-16T15:45:13;5.70;;;1.05;;
27533;SDS011;14973;51.460;7.008;2022-10-16T15:47:42;4.15;;;1.05;;
27533;SDS011;14973;51.460;7.008;2022-10-16T15:50:12;5.90;;;1.92;;
27533;SDS011;14973;51.460;7.008;2022-10-16T15:52:39;7.75;;;2.30;;
27533;SDS011;14973;51.460;7.008;2022-10-16T15:55:06;9.43;;;3.53;;
27533;SDS011;14973;51.460;7.008;2022-10-16T15:57:36;11.93;;;3.42;;
27533;SDS011;14973;51.460;7.008;2022-10-16T16:00:09;18.13;;;9.27;;
27533;SDS011;14973;51.460;7.008;2022-10-16T16:02:38;13.93;;;6.40;;
27533;SDS011;14973;51.460;7.008;2022-10-16T16:05:04;12.15;;;6.30;;
27533;SDS011;14973;51.460;7.008;2022-10-16T16:07:33;6.63;;;3.95;;
27533;SDS011;14973;51.460;7.008;2022-10-16T16:09:59;11.82;;;6.03;;
27533;SDS011;14973;51.460;7.008;2022-10-16T16:12:25;8.80;;;3.42;;
27533;SDS011;14973;51.460;7.008;2022-10-16T16:14:50;7.47;;;3.45;;
27533;SDS011;14973;51.460;7.008;2022-10-16T16:17:16;8.88;;;3.03;;
27533;SDS011;14973;51.460;7.008;2022-10-16T16:19:42;6.28;;;3.08;;
27533;SDS011;14973;51.460;7.008;2022-10-16T16:22:07;7.95;;;3.80;;
27533;SDS011;14973;51.460;7.008;2022-10-16T16:24:33;12.60;;;3.40;;
27533;SDS011;14973;51.460;7.008;2022-10-16T16:26:59;8.13;;;3.03;;
27533;SDS011;14973;51.460;7.008;2022-10-16T16:29:24;9.93;;;3.83;;
27533;SDS011;14973;51.460;7.008;2022-10-16T16:31:50;5.50;;;2.88;;
27533;SDS011;14973;51.460;7.008;2022-10-16T16:34:21;9.52;;;3.42;;
27533;SDS011;14973;51.460;7.008;2022-10-16T16:36:51;17.42;;;3.78;;
27533;SDS011;14973;51.460;7.008;2022-10-16T16:39:16;7.35;;;3.47;;
27533;SDS011;14973;51.460;7.008;2022-10-16T16:41:42;10.85;;;4.80;;
27533;SDS011;14973;51.460;7.008;2022-10-16T16:44:09;14.27;;;5.07;;
27533;SDS011;14973;51.460;7.008;2022-10-16T16:46:36;17.70;;;8.50;;
27533;SDS011;14973;51.460;7.008;2022-10-16T16:49:02;17.20;;;6.25;;
27533;SDS011;14973;51.460;7.008;2022-10-16T16:51:28;14.32;;;4.32;;
27533;SDS011;14973;51.460;7.008;2022-10-16T16:53:54;9.82;;;4.07;;
27533;SDS011;14973;51.460;7.008;2022-10-16T16:56:21;13.52;;;4.30;;
27533;SDS011;14973;51.460;7.008;2022-10-16T16:58:48;13.95;;;4.18;;
27533;SDS011;14973;51.460;7.008;2022-10-16T17:01:15;11.52;;;3.50;;
27533;SDS011;14973;51.460;7.008;2022-10-16T17:03:42;13.07;;;4.80;;